sensor_id;sensor_type;location;lat;lon;timestamp;P1;durP1;ratioP1;P2;durP2;ratioP2
70183;SDS011;57554;51.546;6.776;2023-08-08T00:01:25;5.30;;;2.60;;
70183;SDS011;57554;51.546;6.776;2023-08-08T00:03:51;9.23;;;2.78;;
70183;SDS011;57554;51.546;6.776;2023-08-08T00:06:16;6.57;;;2.40;;
70183;SDS011;57554;51.546;6.776;2023-08-08T00:08:42;5.40;;;2.20;;
70183;SDS011;57554;51.546;6.776;2023-08-08T00:11:07;6.15;;;2.47;;
70183;SDS011;57554;51.546;6.776;2023-08-08T00:13:33;6.82;;;2.50;;
70183;SDS011;57554;51.546;6.776;2023-08-08T00:15:59;6.90;;;2.50;;
70183;SDS011;57554;51.546;6.776;2023-08-08T00:18:24;7.30;;;2.40;;
70183;SDS011;57554;51.546;6.776;2023-08-08T00:20:50;5.35;;;2.28;;
70183;SDS011;57554;51.546;6.776;2023-08-08T00:23:16;9.10;;;2.85;;
70183;SDS011;57554;51.546;6.776;2023-08-08T00:25:41;5.53;;;2.63;;
70183;SDS011;57554;51.546;6.776;2023-08-08T00:28:07;5.75;;;2.80;;
70183;SDS011;57554;51.546;6.776;2023-08-08T00:30:32;7.30;;;2.95;;
70183;SDS011;57554;51.546;6.776;2023-08-08T00:32:59;7.20;;;2.83;;
70183;SDS011;57554;51.546;6.776;2023-08-08T00:35:24;6.45;;;2.85;;
70183;SDS011;57554;51.546;6.776;2023-08-08T00:37:50;10.55;;;3.00;;
70183;SDS011;57554;51.546;6.776;2023-08-08T00:40:15;9.85;;;2.70;;
70183;SDS011;57554;51.546;6.776;2023-08-08T00:42:41;7.68;;;2.85;;
70183;SDS011;57554;51.546;6.776;2023-08-08T00:45:07;6.63;;;2.42;;
70183;SDS011;57554;51.546;6.776;2023-08-08T00:47:32;6.10;;;2.92;;
70183;SDS011;57554;51.546;6.776;2023-08-08T00:50:00;7.53;;;2.75;;
70183;SDS011;57554;51.546;6.776;2023-08-08T00:52:27;7.10;;;2.65;;
70183;SDS011;57554;51.546;6.776;2023-08-08T00:54:53;6.30;;;2.83;;
70183;SDS011;57554;51.546;6.776;2023-08-08T00:57:19;6.20;;;2.55;;
70183;SDS011;57554;51.546;6.776;2023-08-08T00:59:46;6.45;;;2.63;;
70183;SDS011;57554;51.546;6.776;2023-08-08T01:02:11;6.28;;;2.72;;
70183;SDS011;57554;51.546;6.776;2023-08-08T01:04:37;5.60;;;2.30;;
70183;SDS011;57554;51.546;6.776;2023-08-08T01:09:32;6.38;;;2.33;;
70183;SDS011;57554;51.546;6.776;2023-08-08T01:12:02;6.63;;;2.55;;
70183;SDS011;57554;51.546;6.776;2023-08-08T01:14:29;7.70;;;2.35;;
70183;SDS011;57554;51.546;6.776;2023-08-08T01:16:57;8.40;;;2.33;;
70183;SDS011;57554;51.546;6.776;2023-08-08T01:19:29;8.20;;;2.63;;
70183;SDS011;57554;51.546;6.776;2023-08-08T01:21:57;6.82;;;2.25;;
70183;SDS011;57554;51.546;6.776;2023-08-08T01:24:26;6.70;;;2.72;;
70183;SDS011;57554;51.546;6.776;2023-08-08T01:26:54;7.25;;;2.65;;
70183;SDS011;57554;51.546;6.776;2023-08-08T01:29:20;9.20;;;2.50;;
70183;SDS011;57554;51.546;6.776;2023-08-08T01:31:46;10.63;;;2.80;;
70183;SDS011;57554;51.546;6.776;2023-08-08T01:34:12;7.40;;;2.60;;
70183;SDS011;57554;51.546;6.776;2023-08-08T01:36:42;9.13;;;2.60;;
70183;SDS011;57554;51.546;6.776;2023-08-08T01:39:22;7.28;;;2.80;;
70183;SDS011;57554;51.546;6.776;2023-08-08T01:41:52;7.45;;;2.90;;
70183;SDS011;57554;51.546;6.776;2023-08-08T01:44:19;6.97;;;3.05;;
70183;SDS011;57554;51.546;6.776;2023-08-08T01:46:46;6.95;;;2.80;;
70183;SDS011;57554;51.546;6.776;2023-08-08T01:49:11;5.00;;;2.42;;
70183;SDS011;57554;51.546;6.776;2023-08-08T01:51:37;9.82;;;2.90;;
70183;SDS011;57554;51.546;6.776;2023-08-08T01:54:03;4.82;;;2.35;;
70183;SDS011;57554;51.546;6.776;2023-08-08T01:56:28;10.60;;;3.00;;
70183;SDS011;57554;51.546;6.776;2023-08-08T01:58:54;7.22;;;2.70;;
70183;SDS011;57554;51.546;6.776;2023-08-08T02:01:19;5.53;;;2.80;;
70183;SDS011;57554;51.546;6.776;2023-08-08T02:03:45;6.38;;;2.85;;
70183;SDS011;57554;51.546;6.776;2023-08-08T02:06:10;8.52;;;2.70;;
70183;SDS011;57554;51.546;6.776;2023-08-08T02:08:36;10.07;;;3.20;;
70183;SDS011;57554;51.546;6.776;2023-08-08T02:11:01;9.13;;;2.80;;
70183;SDS011;57554;51.546;6.776;2023-08-08T02:13:27;9.18;;;3.28;;
70183;SDS011;57554;51.546;6.776;2023-08-08T02:15:53;6.20;;;2.92;;
70183;SDS011;57554;51.546;6.776;2023-08-08T02:18:18;9.15;;;3.00;;
70183;SDS011;57554;51.546;6.776;2023-08-08T02:20:44;7.22;;;3.05;;
70183;SDS011;57554;51.546;6.776;2023-08-08T02:23:09;7.05;;;3.00;;
70183;SDS011;57554;51.546;6.776;2023-08-08T02:25:35;6.18;;;3.45;;
70183;SDS011;57554;51.546;6.776;2023-08-08T02:28:00;7.93;;;3.25;;
70183;SDS011;57554;51.546;6.776;2023-08-08T02:30:26;9.13;;;2.97;;
70183;SDS011;57554;51.546;6.776;2023-08-08T02:32:51;7.28;;;3.08;;
70183;SDS011;57554;51.546;6.776;2023-08-08T02:35:17;8.45;;;3.00;;
70183;SDS011;57554;51.546;6.776;2023-08-08T02:37:42;7.90;;;3.38;;
70183;SDS011;57554;51.546;6.776;2023-08-08T02:40:08;10.75;;;2.78;;
70183;SDS011;57554;51.546;6.776;2023-08-08T02:42:34;8.57;;;3.08;;
70183;SDS011;57554;51.546;6.776;2023-08-08T02:45:00;7.65;;;2.90;;
70183;SDS011;57554;51.546;6.776;2023-08-08T02:47:26;8.15;;;2.88;;
70183;SDS011;57554;51.546;6.776;2023-08-08T02:49:51;7.47;;;3.00;;
70183;SDS011;57554;51.546;6.776;2023-08-08T02:52:17;16.65;;;3.67;;
70183;SDS011;57554;51.546;6.776;2023-08-08T02:54:43;10.60;;;3.10;;
70183;SDS011;57554;51.546;6.776;2023-08-08T02:57:08;9.93;;;2.83;;
70183;SDS011;57554;51.546;6.776;2023-08-08T02:59:37;9.38;;;3.05;;
70183;SDS011;57554;51.546;6.776;2023-08-08T03:02:03;10.77;;;3.00;;
70183;SDS011;57554;51.546;6.776;2023-08-08T03:04:29;10.38;;;3.20;;
70183;SDS011;57554;51.546;6.776;2023-08-08T03:06:55;8.48;;;3.38;;
70183;SDS011;57554;51.546;6.776;2023-08-08T03:09:21;8.32;;;3.13;;
70183;SDS011;57554;51.546;6.776;2023-08-08T03:11:46;8.23;;;3.15;;
70183;SDS011;57554;51.546;6.776;2023-08-08T03:14:12;8.43;;;3.47;;
70183;SDS011;57554;51.546;6.776;2023-08-08T03:16:38;8.30;;;3.47;;
70183;SDS011;57554;51.546;6.776;2023-08-08T03:19:03;9.55;;;3.42;;
70183;SDS011;57554;51.546;6.776;2023-08-08T03:21:29;10.77;;;3.80;;
70183;SDS011;57554;51.546;6.776;2023-08-08T03:23:54;10.02;;;3.92;;
70183;SDS011;57554;51.546;6.776;2023-08-08T03:26:21;10.07;;;4.10;;
70183;SDS011;57554;51.546;6.776;2023-08-08T03:28:46;12.45;;;3.83;;
70183;SDS011;57554;51.546;6.776;2023-08-08T03:31:15;11.13;;;3.70;;
70183;SDS011;57554;51.546;6.776;2023-08-08T03:33:42;10.73;;;4.07;;
70183;SDS011;57554;51.546;6.776;2023-08-08T03:36:08;14.02;;;4.30;;
70183;SDS011;57554;51.546;6.776;2023-08-08T03:38:33;15.15;;;4.57;;
70183;SDS011;57554;51.546;6.776;2023-08-08T03:40:59;9.48;;;4.32;;
70183;SDS011;57554;51.546;6.776;2023-08-08T03:43:24;11.68;;;4.20;;
70183;SDS011;57554;51.546;6.776;2023-08-08T03:45:50;10.35;;;4.20;;
70183;SDS011;57554;51.546;6.776;2023-08-08T03:48:16;13.27;;;4.32;;
70183;SDS011;57554;51.546;6.776;2023-08-08T03:50:41;10.30;;;4.82;;
70183;SDS011;57554;51.546;6.776;2023-08-08T03:53:07;10.98;;;4.22;;
70183;SDS011;57554;51.546;6.776;2023-08-08T03:55:32;10.90;;;4.38;;
70183;SDS011;57554;51.546;6.776;2023-08-08T03:57:58;9.20;;;4.45;;
70183;SDS011;57554;51.546;6.776;2023-08-08T04:00:24;12.07;;;4.35;;
70183;SDS011;57554;51.546;6.776;2023-08-08T04:02:49;15.18;;;4.68;;
70183;SDS011;57554;51.546;6.776;2023-08-08T04:05:15;11.70;;;4.63;;
70183;SDS011;57554;51.546;6.776;2023-08-08T04:07:40;13.38;;;4.60;;
70183;SDS011;57554;51.546;6.776;2023-08-08T04:10:06;11.63;;;4.38;;
70183;SDS011;57554;51.546;6.776;2023-08-08T04:12:32;12.82;;;4.30;;
70183;SDS011;57554;51.546;6.776;2023-08-08T04:14:58;13.60;;;4.93;;
70183;SDS011;57554;51.546;6.776;2023-08-08T04:17:23;15.25;;;5.10;;
70183;SDS011;57554;51.546;6.776;2023-08-08T04:19:49;11.73;;;4.93;;
70183;SDS011;57554;51.546;6.776;2023-08-08T04:22:15;16.45;;;5.10;;
70183;SDS011;57554;51.546;6.776;2023-08-08T04:24:41;13.40;;;5.20;;
70183;SDS011;57554;51.546;6.776;2023-08-08T04:27:07;11.25;;;5.15;;
70183;SDS011;57554;51.546;6.776;2023-08-08T04:29:32;12.27;;;4.97;;
70183;SDS011;57554;51.546;6.776;2023-08-08T04:31:58;16.70;;;5.25;;
70183;SDS011;57554;51.546;6.776;2023-08-08T04:34:24;11.90;;;5.40;;
70183;SDS011;57554;51.546;6.776;2023-08-08T04:36:49;11.80;;;4.70;;
70183;SDS011;57554;51.546;6.776;2023-08-08T04:39:15;12.73;;;4.22;;
70183;SDS011;57554;51.546;6.776;2023-08-08T04:41:40;12.95;;;4.97;;
70183;SDS011;57554;51.546;6.776;2023-08-08T04:44:06;17.13;;;5.55;;
70183;SDS011;57554;51.546;6.776;2023-08-08T04:46:31;14.98;;;5.15;;
70183;SDS011;57554;51.546;6.776;2023-08-08T04:48:57;11.38;;;4.85;;
70183;SDS011;57554;51.546;6.776;2023-08-08T04:51:23;16.27;;;5.35;;
70183;SDS011;57554;51.546;6.776;2023-08-08T04:53:48;15.07;;;5.60;;
70183;SDS011;57554;51.546;6.776;2023-08-08T04:56:14;13.57;;;5.20;;
70183;SDS011;57554;51.546;6.776;2023-08-08T04:58:39;16.23;;;5.47;;
70183;SDS011;57554;51.546;6.776;2023-08-08T05:01:05;15.38;;;5.43;;
70183;SDS011;57554;51.546;6.776;2023-08-08T05:03:30;14.63;;;5.25;;
70183;SDS011;57554;51.546;6.776;2023-08-08T05:05:56;15.75;;;6.10;;
70183;SDS011;57554;51.546;6.776;2023-08-08T05:08:23;14.70;;;5.93;;
70183;SDS011;57554;51.546;6.776;2023-08-08T05:10:49;12.05;;;6.30;;
70183;SDS011;57554;51.546;6.776;2023-08-08T05:13:14;14.52;;;6.88;;
70183;SDS011;57554;51.546;6.776;2023-08-08T05:15:40;17.38;;;6.97;;
70183;SDS011;57554;51.546;6.776;2023-08-08T05:18:06;16.38;;;7.00;;
70183;SDS011;57554;51.546;6.776;2023-08-08T05:20:31;16.23;;;6.70;;
70183;SDS011;57554;51.546;6.776;2023-08-08T05:22:57;15.50;;;6.38;;
70183;SDS011;57554;51.546;6.776;2023-08-08T05:25:22;14.73;;;6.55;;
70183;SDS011;57554;51.546;6.776;2023-08-08T05:27:48;20.15;;;6.95;;
70183;SDS011;57554;51.546;6.776;2023-08-08T05:30:14;16.08;;;7.15;;
70183;SDS011;57554;51.546;6.776;2023-08-08T05:32:40;18.38;;;7.30;;
70183;SDS011;57554;51.546;6.776;2023-08-08T05:35:06;17.85;;;7.63;;
70183;SDS011;57554;51.546;6.776;2023-08-08T05:37:32;20.75;;;7.47;;
70183;SDS011;57554;51.546;6.776;2023-08-08T05:39:57;21.48;;;7.15;;
70183;SDS011;57554;51.546;6.776;2023-08-08T05:42:23;17.75;;;7.32;;
70183;SDS011;57554;51.546;6.776;2023-08-08T05:44:48;18.30;;;8.18;;
70183;SDS011;57554;51.546;6.776;2023-08-08T05:47:14;21.58;;;8.43;;
70183;SDS011;57554;51.546;6.776;2023-08-08T05:49:39;18.83;;;8.93;;
70183;SDS011;57554;51.546;6.776;2023-08-08T05:52:07;22.80;;;9.40;;
70183;SDS011;57554;51.546;6.776;2023-08-08T05:54:34;21.88;;;9.05;;
70183;SDS011;57554;51.546;6.776;2023-08-08T05:56:59;22.63;;;10.18;;
70183;SDS011;57554;51.546;6.776;2023-08-08T05:59:25;23.02;;;9.93;;
70183;SDS011;57554;51.546;6.776;2023-08-08T06:01:51;20.20;;;9.80;;
70183;SDS011;57554;51.546;6.776;2023-08-08T06:04:16;18.88;;;10.85;;
70183;SDS011;57554;51.546;6.776;2023-08-08T06:06:42;21.70;;;10.85;;
70183;SDS011;57554;51.546;6.776;2023-08-08T06:09:08;28.17;;;12.98;;
70183;SDS011;57554;51.546;6.776;2023-08-08T06:11:34;23.83;;;11.50;;
70183;SDS011;57554;51.546;6.776;2023-08-08T06:14:00;25.27;;;11.75;;
70183;SDS011;57554;51.546;6.776;2023-08-08T06:16:25;26.45;;;11.85;;
70183;SDS011;57554;51.546;6.776;2023-08-08T06:18:52;22.58;;;12.60;;
70183;SDS011;57554;51.546;6.776;2023-08-08T06:21:17;27.98;;;11.73;;
70183;SDS011;57554;51.546;6.776;2023-08-08T06:23:43;28.63;;;12.32;;
70183;SDS011;57554;51.546;6.776;2023-08-08T06:26:08;23.60;;;12.20;;
70183;SDS011;57554;51.546;6.776;2023-08-08T06:28:34;26.55;;;12.45;;
70183;SDS011;57554;51.546;6.776;2023-08-08T06:31:00;25.50;;;12.57;;
70183;SDS011;57554;51.546;6.776;2023-08-08T06:33:26;27.60;;;12.13;;
70183;SDS011;57554;51.546;6.776;2023-08-08T06:35:52;28.52;;;12.68;;
70183;SDS011;57554;51.546;6.776;2023-08-08T06:38:17;26.73;;;12.30;;
70183;SDS011;57554;51.546;6.776;2023-08-08T06:40:43;25.83;;;12.63;;
70183;SDS011;57554;51.546;6.776;2023-08-08T06:43:08;24.75;;;12.73;;
70183;SDS011;57554;51.546;6.776;2023-08-08T06:45:34;25.55;;;13.05;;
70183;SDS011;57554;51.546;6.776;2023-08-08T06:48:00;25.42;;;13.25;;
70183;SDS011;57554;51.546;6.776;2023-08-08T06:50:25;25.90;;;13.10;;
70183;SDS011;57554;51.546;6.776;2023-08-08T06:52:51;26.27;;;13.55;;
70183;SDS011;57554;51.546;6.776;2023-08-08T06:55:17;26.45;;;13.90;;
70183;SDS011;57554;51.546;6.776;2023-08-08T06:57:42;27.15;;;13.10;;
70183;SDS011;57554;51.546;6.776;2023-08-08T07:00:08;28.98;;;13.45;;
70183;SDS011;57554;51.546;6.776;2023-08-08T07:02:37;26.88;;;13.27;;
70183;SDS011;57554;51.546;6.776;2023-08-08T07:05:02;27.20;;;12.98;;
70183;SDS011;57554;51.546;6.776;2023-08-08T07:07:28;34.75;;;14.10;;
70183;SDS011;57554;51.546;6.776;2023-08-08T07:09:55;24.90;;;12.98;;
70183;SDS011;57554;51.546;6.776;2023-08-08T07:12:21;27.10;;;12.07;;
70183;SDS011;57554;51.546;6.776;2023-08-08T07:14:47;21.85;;;11.60;;
70183;SDS011;57554;51.546;6.776;2023-08-08T07:17:12;18.83;;;11.02;;
70183;SDS011;57554;51.546;6.776;2023-08-08T07:19:38;21.23;;;11.52;;
70183;SDS011;57554;51.546;6.776;2023-08-08T07:22:03;18.02;;;10.50;;
70183;SDS011;57554;51.546;6.776;2023-08-08T07:24:29;20.42;;;11.50;;
70183;SDS011;57554;51.546;6.776;2023-08-08T07:26:55;19.80;;;10.48;;
70183;SDS011;57554;51.546;6.776;2023-08-08T07:29:24;20.90;;;10.18;;
70183;SDS011;57554;51.546;6.776;2023-08-08T07:31:51;17.05;;;8.73;;
70183;SDS011;57554;51.546;6.776;2023-08-08T07:34:18;19.73;;;9.13;;
70183;SDS011;57554;51.546;6.776;2023-08-08T07:36:43;20.98;;;9.50;;
70183;SDS011;57554;51.546;6.776;2023-08-08T07:39:09;17.13;;;8.30;;
70183;SDS011;57554;51.546;6.776;2023-08-08T07:41:35;17.90;;;7.63;;
70183;SDS011;57554;51.546;6.776;2023-08-08T07:44:01;14.57;;;7.60;;
70183;SDS011;57554;51.546;6.776;2023-08-08T07:46:27;13.38;;;7.38;;
70183;SDS011;57554;51.546;6.776;2023-08-08T07:48:53;14.75;;;6.70;;
70183;SDS011;57554;51.546;6.776;2023-08-08T07:51:18;16.05;;;6.40;;
70183;SDS011;57554;51.546;6.776;2023-08-08T07:53:44;16.10;;;5.75;;
70183;SDS011;57554;51.546;6.776;2023-08-08T07:56:09;15.68;;;5.63;;
70183;SDS011;57554;51.546;6.776;2023-08-08T07:58:35;16.00;;;5.45;;
70183;SDS011;57554;51.546;6.776;2023-08-08T08:01:01;9.80;;;5.00;;
70183;SDS011;57554;51.546;6.776;2023-08-08T08:03:26;9.45;;;3.78;;
70183;SDS011;57554;51.546;6.776;2023-08-08T08:05:54;13.18;;;4.20;;
70183;SDS011;57554;51.546;6.776;2023-08-08T08:08:20;10.27;;;3.95;;
70183;SDS011;57554;51.546;6.776;2023-08-08T08:10:46;15.35;;;3.75;;
70183;SDS011;57554;51.546;6.776;2023-08-08T08:13:13;11.98;;;3.78;;
70183;SDS011;57554;51.546;6.776;2023-08-08T08:15:39;12.95;;;3.25;;
70183;SDS011;57554;51.546;6.776;2023-08-08T08:18:04;9.63;;;3.13;;
70183;SDS011;57554;51.546;6.776;2023-08-08T08:20:30;11.38;;;2.83;;
70183;SDS011;57554;51.546;6.776;2023-08-08T08:22:55;11.40;;;3.50;;
70183;SDS011;57554;51.546;6.776;2023-08-08T08:25:21;8.50;;;3.45;;
70183;SDS011;57554;51.546;6.776;2023-08-08T08:27:46;9.77;;;3.15;;
70183;SDS011;57554;51.546;6.776;2023-08-08T08:30:12;12.77;;;3.50;;
70183;SDS011;57554;51.546;6.776;2023-08-08T08:32:39;9.40;;;2.80;;
70183;SDS011;57554;51.546;6.776;2023-08-08T08:35:06;8.15;;;2.78;;
70183;SDS011;57554;51.546;6.776;2023-08-08T08:37:32;11.45;;;2.78;;
70183;SDS011;57554;51.546;6.776;2023-08-08T08:39:58;6.63;;;2.55;;
70183;SDS011;57554;51.546;6.776;2023-08-08T08:42:24;7.20;;;2.38;;
70183;SDS011;57554;51.546;6.776;2023-08-08T08:44:54;11.02;;;2.95;;
70183;SDS011;57554;51.546;6.776;2023-08-08T08:47:23;11.00;;;3.25;;
70183;SDS011;57554;51.546;6.776;2023-08-08T08:49:49;11.27;;;3.22;;
70183;SDS011;57554;51.546;6.776;2023-08-08T08:52:17;10.38;;;2.70;;
70183;SDS011;57554;51.546;6.776;2023-08-08T08:54:43;9.07;;;2.75;;
70183;SDS011;57554;51.546;6.776;2023-08-08T08:57:08;8.73;;;2.42;;
70183;SDS011;57554;51.546;6.776;2023-08-08T08:59:34;8.15;;;2.47;;
70183;SDS011;57554;51.546;6.776;2023-08-08T09:02:00;7.35;;;2.45;;
70183;SDS011;57554;51.546;6.776;2023-08-08T09:04:27;6.30;;;2.30;;
70183;SDS011;57554;51.546;6.776;2023-08-08T09:06:54;9.88;;;2.75;;
70183;SDS011;57554;51.546;6.776;2023-08-08T09:09:20;9.02;;;2.95;;
70183;SDS011;57554;51.546;6.776;2023-08-08T09:11:48;6.20;;;2.22;;
70183;SDS011;57554;51.546;6.776;2023-08-08T09:14:25;6.60;;;2.38;;
70183;SDS011;57554;51.546;6.776;2023-08-08T09:16:52;8.25;;;2.30;;
70183;SDS011;57554;51.546;6.776;2023-08-08T09:19:19;7.05;;;2.72;;
70183;SDS011;57554;51.546;6.776;2023-08-08T09:21:46;10.88;;;2.55;;
70183;SDS011;57554;51.546;6.776;2023-08-08T09:24:12;9.63;;;2.58;;
70183;SDS011;57554;51.546;6.776;2023-08-08T09:26:38;8.77;;;2.65;;
70183;SDS011;57554;51.546;6.776;2023-08-08T09:29:04;9.00;;;2.70;;
70183;SDS011;57554;51.546;6.776;2023-08-08T09:31:30;8.43;;;2.70;;
70183;SDS011;57554;51.546;6.776;2023-08-08T09:33:59;9.18;;;2.80;;
70183;SDS011;57554;51.546;6.776;2023-08-08T09:36:26;8.45;;;2.30;;
70183;SDS011;57554;51.546;6.776;2023-08-08T09:38:52;7.10;;;2.53;;
70183;SDS011;57554;51.546;6.776;2023-08-08T09:41:20;10.63;;;2.70;;
70183;SDS011;57554;51.546;6.776;2023-08-08T09:43:49;10.85;;;2.42;;
70183;SDS011;57554;51.546;6.776;2023-08-08T09:46:17;6.85;;;2.75;;
70183;SDS011;57554;51.546;6.776;2023-08-08T09:48:44;12.60;;;3.17;;
70183;SDS011;57554;51.546;6.776;2023-08-08T09:51:10;9.45;;;2.65;;
70183;SDS011;57554;51.546;6.776;2023-08-08T09:53:36;8.45;;;3.33;;
70183;SDS011;57554;51.546;6.776;2023-08-08T09:56:03;11.27;;;3.60;;
70183;SDS011;57554;51.546;6.776;2023-08-08T09:58:30;10.93;;;3.15;;
70183;SDS011;57554;51.546;6.776;2023-08-08T10:00:56;12.25;;;3.05;;
70183;SDS011;57554;51.546;6.776;2023-08-08T10:03:23;10.68;;;2.70;;
70183;SDS011;57554;51.546;6.776;2023-08-08T10:05:49;9.23;;;2.47;;
70183;SDS011;57554;51.546;6.776;2023-08-08T10:08:14;9.18;;;2.70;;
70183;SDS011;57554;51.546;6.776;2023-08-08T10:10:41;11.35;;;2.72;;
70183;SDS011;57554;51.546;6.776;2023-08-08T10:13:09;8.27;;;2.40;;
70183;SDS011;57554;51.546;6.776;2023-08-08T10:15:43;8.27;;;2.92;;
70183;SDS011;57554;51.546;6.776;2023-08-08T10:18:09;8.90;;;3.08;;
70183;SDS011;57554;51.546;6.776;2023-08-08T10:20:35;8.43;;;2.88;;
70183;SDS011;57554;51.546;6.776;2023-08-08T10:23:02;8.32;;;3.30;;
70183;SDS011;57554;51.546;6.776;2023-08-08T10:25:28;9.45;;;2.67;;
70183;SDS011;57554;51.546;6.776;2023-08-08T10:30:29;7.32;;;3.08;;
70183;SDS011;57554;51.546;6.776;2023-08-08T10:32:56;8.93;;;2.97;;
70183;SDS011;57554;51.546;6.776;2023-08-08T10:35:22;7.57;;;3.00;;
70183;SDS011;57554;51.546;6.776;2023-08-08T10:37:55;6.95;;;2.63;;
70183;SDS011;57554;51.546;6.776;2023-08-08T10:40:23;7.25;;;2.63;;
70183;SDS011;57554;51.546;6.776;2023-08-08T10:42:48;8.57;;;2.30;;
70183;SDS011;57554;51.546;6.776;2023-08-08T10:45:14;8.93;;;2.88;;
70183;SDS011;57554;51.546;6.776;2023-08-08T10:47:41;8.05;;;2.65;;
70183;SDS011;57554;51.546;6.776;2023-08-08T10:52:38;8.20;;;2.22;;
70183;SDS011;57554;51.546;6.776;2023-08-08T10:57:54;10.43;;;2.03;;
70183;SDS011;57554;51.546;6.776;2023-08-08T11:00:23;7.72;;;1.95;;
70183;SDS011;57554;51.546;6.776;2023-08-08T11:02:50;6.47;;;2.40;;
70183;SDS011;57554;51.546;6.776;2023-08-08T11:05:16;6.32;;;2.03;;
70183;SDS011;57554;51.546;6.776;2023-08-08T11:07:42;10.10;;;2.33;;
70183;SDS011;57554;51.546;6.776;2023-08-08T11:10:08;7.72;;;2.20;;
70183;SDS011;57554;51.546;6.776;2023-08-08T11:12:35;7.50;;;2.30;;
70183;SDS011;57554;51.546;6.776;2023-08-08T11:15:00;7.10;;;2.20;;
70183;SDS011;57554;51.546;6.776;2023-08-08T11:17:26;6.68;;;2.40;;
70183;SDS011;57554;51.546;6.776;2023-08-08T11:19:52;9.23;;;2.50;;
70183;SDS011;57554;51.546;6.776;2023-08-08T11:22:17;8.02;;;2.92;;
70183;SDS011;57554;51.546;6.776;2023-08-08T11:24:46;6.95;;;2.65;;
70183;SDS011;57554;51.546;6.776;2023-08-08T11:27:12;7.85;;;2.20;;
70183;SDS011;57554;51.546;6.776;2023-08-08T11:29:37;7.55;;;2.70;;
70183;SDS011;57554;51.546;6.776;2023-08-08T11:32:03;7.60;;;2.40;;
70183;SDS011;57554;51.546;6.776;2023-08-08T11:34:30;7.10;;;2.47;;
70183;SDS011;57554;51.546;6.776;2023-08-08T11:36:57;6.95;;;2.47;;
70183;SDS011;57554;51.546;6.776;2023-08-08T11:39:24;7.57;;;2.00;;
70183;SDS011;57554;51.546;6.776;2023-08-08T11:41:50;9.52;;;2.28;;
70183;SDS011;57554;51.546;6.776;2023-08-08T11:44:15;6.03;;;2.63;;
70183;SDS011;57554;51.546;6.776;2023-08-08T11:46:44;7.32;;;2.60;;
70183;SDS011;57554;51.546;6.776;2023-08-08T11:49:14;6.25;;;2.35;;
70183;SDS011;57554;51.546;6.776;2023-08-08T11:51:42;9.45;;;2.50;;
70183;SDS011;57554;51.546;6.776;2023-08-08T11:54:08;7.43;;;2.45;;
70183;SDS011;57554;51.546;6.776;2023-08-08T11:56:34;8.93;;;2.10;;
70183;SDS011;57554;51.546;6.776;2023-08-08T11:59:01;5.72;;;2.35;;
70183;SDS011;57554;51.546;6.776;2023-08-08T12:01:27;6.75;;;2.13;;
70183;SDS011;57554;51.546;6.776;2023-08-08T12:03:55;9.85;;;2.55;;
70183;SDS011;57554;51.546;6.776;2023-08-08T12:06:21;6.43;;;2.28;;
70183;SDS011;57554;51.546;6.776;2023-08-08T12:08:47;6.35;;;2.50;;
70183;SDS011;57554;51.546;6.776;2023-08-08T12:11:13;6.18;;;2.10;;
70183;SDS011;57554;51.546;6.776;2023-08-08T12:13:41;6.78;;;2.40;;
70183;SDS011;57554;51.546;6.776;2023-08-08T12:16:10;7.13;;;2.35;;
70183;SDS011;57554;51.546;6.776;2023-08-08T12:18:37;7.35;;;2.72;;
70183;SDS011;57554;51.546;6.776;2023-08-08T12:21:04;6.50;;;2.25;;
70183;SDS011;57554;51.546;6.776;2023-08-08T12:23:31;7.03;;;1.73;;
70183;SDS011;57554;51.546;6.776;2023-08-08T12:25:57;11.75;;;2.25;;
70183;SDS011;57554;51.546;6.776;2023-08-08T12:28:24;5.35;;;2.10;;
70183;SDS011;57554;51.546;6.776;2023-08-08T12:30:50;8.50;;;3.67;;
70183;SDS011;57554;51.546;6.776;2023-08-08T12:33:15;7.20;;;2.85;;
70183;SDS011;57554;51.546;6.776;2023-08-08T12:35:41;7.55;;;2.90;;
70183;SDS011;57554;51.546;6.776;2023-08-08T12:38:06;7.10;;;2.97;;
70183;SDS011;57554;51.546;6.776;2023-08-08T12:40:32;7.88;;;2.63;;
70183;SDS011;57554;51.546;6.776;2023-08-08T12:42:58;8.32;;;2.70;;
70183;SDS011;57554;51.546;6.776;2023-08-08T12:45:24;7.22;;;2.63;;
70183;SDS011;57554;51.546;6.776;2023-08-08T12:47:50;6.43;;;3.00;;
70183;SDS011;57554;51.546;6.776;2023-08-08T12:50:15;7.75;;;2.88;;
70183;SDS011;57554;51.546;6.776;2023-08-08T12:52:41;7.32;;;2.45;;
70183;SDS011;57554;51.546;6.776;2023-08-08T12:55:07;7.97;;;2.88;;
70183;SDS011;57554;51.546;6.776;2023-08-08T12:57:33;8.70;;;3.00;;
70183;SDS011;57554;51.546;6.776;2023-08-08T12:59:59;6.68;;;2.55;;
70183;SDS011;57554;51.546;6.776;2023-08-08T13:02:25;6.95;;;2.35;;
70183;SDS011;57554;51.546;6.776;2023-08-08T13:04:50;6.07;;;2.33;;
70183;SDS011;57554;51.546;6.776;2023-08-08T13:07:16;10.70;;;2.58;;
70183;SDS011;57554;51.546;6.776;2023-08-08T13:09:41;7.10;;;2.67;;
70183;SDS011;57554;51.546;6.776;2023-08-08T13:12:07;6.65;;;2.28;;
70183;SDS011;57554;51.546;6.776;2023-08-08T13:14:33;7.53;;;2.20;;
70183;SDS011;57554;51.546;6.776;2023-08-08T13:16:58;7.40;;;2.80;;
70183;SDS011;57554;51.546;6.776;2023-08-08T13:19:24;5.38;;;2.50;;
70183;SDS011;57554;51.546;6.776;2023-08-08T13:21:51;9.10;;;3.00;;
70183;SDS011;57554;51.546;6.776;2023-08-08T13:24:17;6.57;;;2.50;;
70183;SDS011;57554;51.546;6.776;2023-08-08T13:26:42;7.53;;;2.38;;
70183;SDS011;57554;51.546;6.776;2023-08-08T13:29:08;7.88;;;2.95;;
70183;SDS011;57554;51.546;6.776;2023-08-08T13:31:34;7.80;;;2.55;;
70183;SDS011;57554;51.546;6.776;2023-08-08T13:33:59;7.28;;;3.03;;
70183;SDS011;57554;51.546;6.776;2023-08-08T13:36:25;8.23;;;2.95;;
70183;SDS011;57554;51.546;6.776;2023-08-08T13:38:50;6.28;;;2.40;;
70183;SDS011;57554;51.546;6.776;2023-08-08T13:41:16;6.40;;;2.35;;
70183;SDS011;57554;51.546;6.776;2023-08-08T13:43:42;4.25;;;2.00;;
70183;SDS011;57554;51.546;6.776;2023-08-08T13:46:07;9.43;;;2.55;;
70183;SDS011;57554;51.546;6.776;2023-08-08T13:48:34;8.30;;;2.00;;
70183;SDS011;57554;51.546;6.776;2023-08-08T13:51:01;6.80;;;2.10;;
70183;SDS011;57554;51.546;6.776;2023-08-08T13:53:28;6.90;;;1.98;;
70183;SDS011;57554;51.546;6.776;2023-08-08T13:55:55;5.35;;;1.70;;
70183;SDS011;57554;51.546;6.776;2023-08-08T13:58:20;6.35;;;2.00;;
70183;SDS011;57554;51.546;6.776;2023-08-08T14:00:47;6.85;;;2.08;;
70183;SDS011;57554;51.546;6.776;2023-08-08T14:03:13;5.25;;;2.03;;
70183;SDS011;57554;51.546;6.776;2023-08-08T14:05:39;5.72;;;1.92;;
70183;SDS011;57554;51.546;6.776;2023-08-08T14:08:04;5.20;;;1.60;;
70183;SDS011;57554;51.546;6.776;2023-08-08T14:10:30;7.07;;;2.03;;
70183;SDS011;57554;51.546;6.776;2023-08-08T14:12:56;5.75;;;2.08;;
70183;SDS011;57554;51.546;6.776;2023-08-08T14:15:22;8.07;;;2.50;;
70183;SDS011;57554;51.546;6.776;2023-08-08T14:17:47;4.70;;;1.90;;
70183;SDS011;57554;51.546;6.776;2023-08-08T14:20:13;6.18;;;1.67;;
70183;SDS011;57554;51.546;6.776;2023-08-08T14:22:39;5.30;;;2.00;;
70183;SDS011;57554;51.546;6.776;2023-08-08T14:25:05;4.85;;;1.38;;
70183;SDS011;57554;51.546;6.776;2023-08-08T14:27:33;7.70;;;1.52;;
70183;SDS011;57554;51.546;6.776;2023-08-08T14:29:59;4.80;;;1.30;;
70183;SDS011;57554;51.546;6.776;2023-08-08T14:32:25;4.18;;;1.30;;
70183;SDS011;57554;51.546;6.776;2023-08-08T14:34:50;4.47;;;1.88;;
70183;SDS011;57554;51.546;6.776;2023-08-08T14:37:16;4.38;;;1.10;;
70183;SDS011;57554;51.546;6.776;2023-08-08T14:39:41;4.50;;;1.30;;
70183;SDS011;57554;51.546;6.776;2023-08-08T14:42:07;7.13;;;1.15;;
70183;SDS011;57554;51.546;6.776;2023-08-08T14:44:33;3.53;;;1.20;;